Time;durP1;ratioP1;P1;durP2;ratioP2;P2;SDS_P1;SDS_P2;PMS_P1;PMS_P2;Temp;Humidity;BMP_temperature;BMP_pressure;BME280_temperature;BME280_humidity;BME280_pressure;Samples;Min_cycle;Max_cycle;Signal;HPM_P1;HPM_P2
2023/12/14 00:01:42;;;;;;;2.83;2.60;;;18.70;43.60;;;;;;4954717;28;20225;-70
2023/12/14 00:04:08;;;;;;;2.50;2.40;;;18.70;43.60;;;;;;4954405;28;20228;-70
2023/12/14 00:06:34;;;;;;;3.10;2.90;;;18.80;43.60;;;;;;4957768;28;20627;-70
2023/12/14 00:08:59;;;;;;;2.80;2.60;;;18.70;43.60;;;;;;4955558;28;20665;-70
2023/12/14 00:11:25;;;;;;;3.00;2.80;;;18.70;43.60;;;;;;4955554;28;20759;-72
2023/12/14 00:13:51;;;;;;;3.87;3.57;;;18.70;43.60;;;;;;4956056;28;20304;-69
2023/12/14 00:16:16;;;;;;;3.27;3.03;;;18.70;43.50;;;;;;4958414;28;20252;-69
2023/12/14 00:18:42;;;;;;;3.60;2.67;;;18.70;43.60;;;;;;4956430;28;20332;-70
2023/12/14 00:21:07;;;;;;;4.27;3.10;;;18.70;43.60;;;;;;4951998;28;20749;-69
2023/12/14 00:23:36;;;;;;;2.70;2.50;;;18.70;43.60;;;;;;4956288;28;20227;-71
2023/12/14 00:26:01;;;;;;;3.20;2.93;;;18.70;43.60;;;;;;4956800;28;20264;-70
2023/12/14 00:28:27;;;;;;;3.73;3.53;;;18.70;43.60;;;;;;4956342;28;20508;-71
2023/12/14 00:30:52;;;;;;;2.97;2.60;;;18.70;43.60;;;;;;4956807;28;20677;-69
2023/12/14 00:33:18;;;;;;;3.30;3.00;;;18.70;43.60;;;;;;4955710;28;20287;-69
2023/12/14 00:35:43;;;;;;;3.97;3.67;;;18.70;43.60;;;;;;4955437;28;20672;-69
2023/12/14 00:38:09;;;;;;;3.60;3.30;;;18.70;43.60;;;;;;4955920;28;20224;-69
2023/12/14 00:40:34;;;;;;;3.57;3.23;;;18.70;43.60;;;;;;4954700;28;20323;-70
2023/12/14 00:43:00;;;;;;;2.80;2.70;;;18.70;43.60;;;;;;4953258;28;20266;-71
2023/12/14 00:45:25;;;;;;;2.93;2.73;;;18.70;43.60;;;;;;4955620;28;20303;-67
2023/12/14 00:47:51;;;;;;;3.53;3.23;;;18.70;43.60;;;;;;4955522;28;20231;-69
2023/12/14 00:50:17;;;;;;;3.10;2.90;;;18.70;43.60;;;;;;4955801;28;20220;-69
2023/12/14 00:52:42;;;;;;;3.33;3.10;;;18.70;43.50;;;;;;4956446;28;20648;-69
2023/12/14 00:55:08;;;;;;;4.00;3.00;;;18.70;43.60;;;;;;4955649;28;20225;-69
2023/12/14 00:57:33;;;;;;;3.27;3.07;;;18.70;43.60;;;;;;4953561;28;20246;-69
2023/12/14 00:59:59;;;;;;;3.37;3.17;;;18.70;43.60;;;;;;4952473;28;20231;-70
2023/12/14 01:02:24;;;;;;;3.67;3.40;;;18.70;43.60;;;;;;4952994;28;21052;-69
2023/12/14 01:04:50;;;;;;;3.17;2.97;;;18.70;43.60;;;;;;4938398;28;20228;-69
2023/12/14 01:07:15;;;;;;;3.70;3.40;;;18.70;43.60;;;;;;4955942;28;20320;-69
2023/12/14 01:09:41;;;;;;;4.00;2.80;;;18.70;43.50;;;;;;4954310;28;20251;-70
2023/12/14 01:12:06;;;;;;;3.67;3.47;;;18.70;43.50;;;;;;4952512;28;20225;-71
2023/12/14 01:14:32;;;;;;;3.20;3.00;;;18.70;43.60;;;;;;4955060;28;20231;-71
2023/12/14 01:16:58;;;;;;;3.20;2.97;;;18.70;43.60;;;;;;4952222;28;20756;-69
2023/12/14 01:19:25;;;;;;;3.37;3.17;;;18.70;43.50;;;;;;4955075;28;20227;-69
2023/12/14 01:21:51;;;;;;;2.93;2.73;;;18.70;43.60;;;;;;4954830;28;20227;-71
2023/12/14 01:24:16;;;;;;;2.83;2.63;;;18.70;43.60;;;;;;4955106;28;20523;-69
2023/12/14 01:26:42;;;;;;;3.30;3.10;;;18.70;43.60;;;;;;4954074;28;21060;-70
2023/12/14 01:29:08;;;;;;;3.23;3.03;;;18.70;43.60;;;;;;4953340;28;20224;-69
2023/12/14 01:31:33;;;;;;;2.87;2.67;;;18.70;43.60;;;;;;4955243;28;20208;-69
2023/12/14 01:33:59;;;;;;;3.43;3.13;;;18.70;43.60;;;;;;4954546;28;20243;-69
2023/12/14 01:36:26;;;;;;;3.40;3.17;;;18.70;43.60;;;;;;4953217;28;20244;-70
2023/12/14 01:38:52;;;;;;;2.90;2.70;;;18.70;43.50;;;;;;4954388;28;20228;-69
2023/12/14 01:41:18;;;;;;;2.87;2.67;;;18.70;43.60;;;;;;4953706;28;20471;-71
2023/12/14 01:43:44;;;;;;;2.90;2.70;;;18.70;43.60;;;;;;4949922;28;20569;-70
2023/12/14 01:46:10;;;;;;;3.03;2.80;;;18.70;43.60;;;;;;4955979;28;20452;-69
2023/12/14 01:48:36;;;;;;;2.80;2.57;;;18.70;43.60;;;;;;4953221;28;20461;-68
2023/12/14 01:51:02;;;;;;;3.00;2.80;;;18.70;43.60;;;;;;4955240;28;20237;-69
2023/12/14 01:53:27;;;;;;;2.67;2.47;;;18.70;43.60;;;;;;4952418;28;20673;-69
2023/12/14 01:55:53;;;;;;;2.97;2.77;;;18.70;43.60;;;;;;4953269;28;20250;-70
2023/12/14 01:58:19;;;;;;;2.90;2.70;;;18.70;43.50;;;;;;4951766;28;20712;-69
2023/12/14 02:01:19;;;;;;;2.53;2.43;;;18.70;43.60;;;;;;4953544;28;20228;-69
2023/12/14 02:03:46;;;;;;;2.90;2.70;;;18.70;43.60;;;;;;4952481;28;20462;-70
2023/12/14 02:06:12;;;;;;;3.20;2.70;;;18.70;43.60;;;;;;4954449;28;20445;-69
2023/12/14 02:08:37;;;;;;;3.00;2.70;;;18.70;43.60;;;;;;4951816;28;20488;-69
2023/12/14 02:11:03;;;;;;;3.10;2.90;;;18.70;43.60;;;;;;4947254;28;20984;-69
2023/12/14 02:13:29;;;;;;;2.93;2.73;;;18.70;43.60;;;;;;4954429;28;20225;-69
2023/12/14 02:15:54;;;;;;;2.40;2.30;;;18.70;43.60;;;;;;4953763;28;20237;-69
2023/12/14 02:18:20;;;;;;;2.70;2.50;;;18.70;43.60;;;;;;4952651;28;20227;-69
2023/12/14 02:20:45;;;;;;;2.70;2.50;;;18.70;43.60;;;;;;4954364;28;20256;-69
2023/12/14 02:23:11;;;;;;;3.47;3.23;;;18.70;43.60;;;;;;4953244;28;20693;-70
2023/12/14 02:25:36;;;;;;;2.80;2.60;;;18.70;43.60;;;;;;4955421;28;20231;-69
2023/12/14 02:28:02;;;;;;;3.40;3.20;;;18.70;43.60;;;;;;4955587;28;20264;-69
2023/12/14 02:30:27;;;;;;;3.30;3.10;;;18.70;43.60;;;;;;4952225;28;20232;-69
2023/12/14 02:32:53;;;;;;;2.97;2.77;;;18.70;43.60;;;;;;4944764;28;20363;-70
2023/12/14 02:35:19;;;;;;;2.37;2.27;;;18.70;43.60;;;;;;4955283;28;20260;-69
2023/12/14 02:37:44;;;;;;;2.60;2.40;;;18.70;43.60;;;;;;4953126;28;20260;-69
2023/12/14 02:40:10;;;;;;;2.70;2.50;;;18.70;43.60;;;;;;4949370;28;20221;-69
2023/12/14 02:42:36;;;;;;;2.97;2.77;;;18.70;43.60;;;;;;4948489;28;20233;-69
2023/12/14 02:45:03;;;;;;;2.20;2.10;;;18.70;43.60;;;;;;4955617;28;20455;-68
2023/12/14 02:47:29;;;;;;;3.10;2.90;;;18.70;43.60;;;;;;4951233;28;20455;-69
2023/12/14 02:49:55;;;;;;;2.97;2.77;;;18.70;43.60;;;;;;4952859;28;20488;-70
2023/12/14 02:52:20;;;;;;;2.70;2.60;;;18.70;43.60;;;;;;4954855;28;20803;-69
2023/12/14 02:54:46;;;;;;;2.83;2.63;;;18.70;43.60;;;;;;4953762;28;20901;-70
2023/12/14 02:57:12;;;;;;;3.00;2.80;;;18.70;43.60;;;;;;4952186;28;20777;-70
2023/12/14 02:59:37;;;;;;;3.00;2.80;;;18.70;43.60;;;;;;4950238;28;20311;-70
2023/12/14 03:02:03;;;;;;;2.90;2.70;;;18.70;43.50;;;;;;4954551;28;20224;-69
2023/12/14 03:04:28;;;;;;;2.63;2.53;;;18.70;43.60;;;;;;4946754;28;20243;-69
2023/12/14 03:06:54;;;;;;;2.70;2.60;;;18.70;43.60;;;;;;4950485;28;20239;-69
2023/12/14 03:09:20;;;;;;;2.83;2.63;;;18.70;43.60;;;;;;4953395;28;20225;-68
2023/12/14 03:11:46;;;;;;;3.40;3.20;;;18.70;43.60;;;;;;4951354;28;20275;-70
2023/12/14 03:14:11;;;;;;;3.00;2.80;;;18.70;43.60;;;;;;4952968;28;20234;-69
2023/12/14 03:16:37;;;;;;;3.20;3.00;;;18.70;43.60;;;;;;4953696;28;20481;-69
2023/12/14 03:19:03;;;;;;;2.90;2.70;;;18.70;43.60;;;;;;4951608;28;20312;-69
2023/12/14 03:21:29;;;;;;;2.60;2.50;;;18.70;43.60;;;;;;4956616;28;20232;-69
2023/12/14 03:23:54;;;;;;;2.90;2.70;;;18.70;43.60;;;;;;4952624;28;20929;-69
2023/12/14 03:26:20;;;;;;;2.70;2.50;;;18.70;43.60;;;;;;4954353;28;20248;-69
2023/12/14 03:28:46;;;;;;;2.70;2.50;;;18.70;43.60;;;;;;4951033;28;20233;-70
2023/12/14 03:31:12;;;;;;;3.50;3.30;;;18.70;43.60;;;;;;4954029;28;20340;-69
2023/12/14 03:33:38;;;;;;;3.30;3.10;;;18.70;43.60;;;;;;4951941;28;21083;-69
2023/12/14 03:36:04;;;;;;;2.60;2.50;;;18.70;43.60;;;;;;4954711;28;21205;-69
2023/12/14 03:38:29;;;;;;;3.17;2.97;;;18.70;43.60;;;;;;4957973;28;20233;-68
2023/12/14 03:40:55;;;;;;;2.80;2.63;;;18.70;43.60;;;;;;4956069;28;20459;-68
2023/12/14 03:43:21;;;;;;;2.90;2.70;;;18.70;43.60;;;;;;4956380;28;20251;-70
2023/12/14 03:45:46;;;;;;;2.90;2.70;;;18.70;43.60;;;;;;4958245;28;20700;-71
2023/12/14 03:48:12;;;;;;;3.47;3.17;;;18.70;43.60;;;;;;4957153;28;20228;-70
2023/12/14 03:50:37;;;;;;;2.77;2.60;;;18.70;43.60;;;;;;4955199;28;21629;-70
2023/12/14 03:53:03;;;;;;;3.40;3.20;;;18.70;43.60;;;;;;4956678;28;20229;-68
2023/12/14 03:55:28;;;;;;;3.03;2.83;;;18.70;43.60;;;;;;4959048;28;20225;-69
2023/12/14 03:57:54;;;;;;;2.70;2.57;;;18.70;43.60;;;;;;4956122;28;20531;-69
2023/12/14 04:00:20;;;;;;;3.10;2.90;;;18.70;43.60;;;;;;4953766;28;20259;-69
2023/12/14 04:02:46;;;;;;;3.17;2.97;;;18.70;43.60;;;;;;4954103;28;20224;-68
2023/12/14 04:05:11;;;;;;;2.90;2.73;;;18.70;43.60;;;;;;4954466;28;20500;-69
2023/12/14 04:07:40;;;;;;;3.00;2.80;;;18.60;43.50;;;;;;4955810;28;20228;-69
2023/12/14 04:10:10;;;;;;;3.53;3.33;;;18.70;43.60;;;;;;4956384;28;20584;-69
2023/12/14 04:12:36;;;;;;;3.07;2.87;;;18.70;43.60;;;;;;4956075;28;21238;-69
2023/12/14 04:15:02;;;;;;;3.00;2.80;;;18.70;43.60;;;;;;4959788;28;20540;-68
2023/12/14 04:17:28;;;;;;;3.17;2.73;;;18.70;43.70;;;;;;4957818;28;20557;-69
2023/12/14 04:19:54;;;;;;;3.33;3.13;;;18.70;43.60;;;;;;4954368;28;20433;-69
2023/12/14 04:22:19;;;;;;;3.20;3.00;;;18.60;43.50;;;;;;4955255;28;20271;-68
2023/12/14 04:24:45;;;;;;;3.37;3.17;;;18.70;43.60;;;;;;4957852;28;20229;-68
2023/12/14 04:27:10;;;;;;;2.93;2.73;;;18.70;43.60;;;;;;4956283;28;20240;-69
2023/12/14 04:29:36;;;;;;;2.90;2.70;;;18.70;43.60;;;;;;4955655;28;20236;-69
2023/12/14 04:32:02;;;;;;;3.10;2.90;;;18.60;43.50;;;;;;4958884;28;20229;-69
2023/12/14 04:34:27;;;;;;;2.90;2.70;;;18.70;43.60;;;;;;4956530;28;20231;-68
2023/12/14 04:36:57;;;;;;;3.57;3.33;;;18.70;43.60;;;;;;4956645;28;20470;-69
2023/12/14 04:39:26;;;;;;;3.03;2.83;;;18.70;43.60;;;;;;4956077;28;20234;-69
2023/12/14 04:41:52;;;;;;;3.47;3.27;;;18.60;43.50;;;;;;4956255;28;20446;-69
2023/12/14 04:44:18;;;;;;;3.30;3.10;;;18.70;43.60;;;;;;4957546;28;20444;-68
2023/12/14 04:46:44;;;;;;;3.20;3.00;;;18.70;43.60;;;;;;4956104;28;20811;-68
2023/12/14 04:49:09;;;;;;;3.50;3.20;;;18.70;43.60;;;;;;4956546;28;20220;-68
2023/12/14 04:51:35;;;;;;;2.93;2.73;;;18.70;43.60;;;;;;4958998;28;20224;-68
2023/12/14 04:54:00;;;;;;;3.30;3.10;;;18.70;43.60;;;;;;4957655;28;20331;-68
2023/12/14 04:56:26;;;;;;;3.27;3.07;;;18.70;43.50;;;;;;4956087;28;20245;-68
2023/12/14 04:58:51;;;;;;;3.20;3.00;;;18.70;43.60;;;;;;4954577;28;20740;-68
2023/12/14 05:01:17;;;;;;;3.33;3.13;;;18.70;43.50;;;;;;4949780;28;20220;-69
2023/12/14 05:03:43;;;;;;;3.03;2.83;;;18.70;43.60;;;;;;4952559;28;20256;-68
2023/12/14 05:06:08;;;;;;;3.23;3.03;;;18.70;43.60;;;;;;4955499;28;20232;-67
2023/12/14 05:08:34;;;;;;;3.57;3.37;;;18.70;43.60;;;;;;4957693;28;20813;-68
2023/12/14 05:11:00;;;;;;;3.80;3.50;;;18.70;43.60;;;;;;4958484;28;21002;-68
2023/12/14 05:13:25;;;;;;;3.43;3.10;;;18.70;43.50;;;;;;4956079;28;20695;-67
2023/12/14 05:15:54;;;;;;;3.97;3.77;;;18.70;43.60;;;;;;4957668;28;20252;-67
2023/12/14 05:18:20;;;;;;;3.30;3.10;;;18.70;43.50;;;;;;4955525;28;20243;-67
2023/12/14 05:20:46;;;;;;;3.77;3.57;;;18.80;43.60;;;;;;4955597;28;20544;-67
2023/12/14 05:23:12;;;;;;;3.53;3.33;;;18.80;43.60;;;;;;4957798;28;20438;-68
2023/12/14 05:25:38;;;;;;;3.27;3.07;;;18.80;43.60;;;;;;4959730;28;20236;-68
2023/12/14 05:28:04;;;;;;;3.30;3.10;;;18.80;43.60;;;;;;4947709;28;20241;-68
2023/12/14 05:30:30;;;;;;;4.10;3.70;;;18.80;43.60;;;;;;4952986;28;20229;-69
2023/12/14 05:32:55;;;;;;;3.43;3.23;;;18.80;43.60;;;;;;4953621;28;20372;-68
2023/12/14 05:35:21;;;;;;;3.77;3.57;;;18.80;43.60;;;;;;4955323;28;20438;-74
2023/12/14 05:37:47;;;;;;;3.93;3.63;;;18.80;43.60;;;;;;4952369;28;20237;-72
2023/12/14 05:40:12;;;;;;;3.53;3.33;;;18.80;43.60;;;;;;4952854;28;20225;-70
2023/12/14 05:42:38;;;;;;;3.60;3.40;;;18.80;43.60;;;;;;4952313;28;20438;-70
2023/12/14 05:45:05;;;;;;;3.80;3.40;;;18.80;44.40;;;;;;4953070;28;20220;-72
2023/12/14 05:47:32;;;;;;;3.80;3.60;;;18.80;43.60;;;;;;4955232;28;20224;-70
2023/12/14 05:49:59;;;;;;;4.20;3.90;;;18.80;43.60;;;;;;4954404;28;20791;-69
2023/12/14 05:52:24;;;;;;;3.80;3.60;;;18.80;43.60;;;;;;4952510;28;21064;-70
2023/12/14 05:54:50;;;;;;;3.60;3.30;;;18.80;43.60;;;;;;4955184;28;20429;-70
2023/12/14 05:57:16;;;;;;;3.97;3.67;;;18.80;43.60;;;;;;4954102;28;20292;-71
2023/12/14 05:59:41;;;;;;;4.00;3.70;;;18.80;43.60;;;;;;4951912;28;20731;-68
2023/12/14 06:02:07;;;;;;;4.03;3.60;;;18.80;43.60;;;;;;4950240;28;20221;-71
2023/12/14 06:04:32;;;;;;;4.30;3.57;;;18.80;43.60;;;;;;4954878;28;20320;-70
2023/12/14 06:06:58;;;;;;;3.30;3.10;;;18.80;43.60;;;;;;4946550;28;20237;-70
2023/12/14 06:09:29;;;;;;;3.73;3.43;;;18.80;43.60;;;;;;4952775;28;20738;-74
2023/12/14 06:11:55;;;;;;;3.77;3.57;;;18.80;43.60;;;;;;4952246;28;20236;-72
2023/12/14 06:14:20;;;;;;;3.70;3.50;;;18.80;43.60;;;;;;4949388;28;20450;-76
2023/12/14 06:16:46;;;;;;;4.67;4.17;;;18.80;43.60;;;;;;4954938;28;20682;-71
2023/12/14 06:19:12;;;;;;;4.70;4.40;;;18.80;43.60;;;;;;4954484;28;20225;-69
2023/12/14 06:21:37;;;;;;;3.93;3.67;;;18.80;43.60;;;;;;4957986;28;20244;-69
2023/12/14 06:24:03;;;;;;;4.60;4.30;;;18.80;43.60;;;;;;4955418;28;20220;-70
2023/12/14 06:26:29;;;;;;;4.63;4.33;;;18.80;43.60;;;;;;4955502;28;20241;-69
2023/12/14 06:28:54;;;;;;;4.40;4.20;;;18.80;43.60;;;;;;4956523;28;20584;-68
2023/12/14 06:31:21;;;;;;;4.47;4.10;;;18.80;43.60;;;;;;4955992;28;20758;-70
2023/12/14 06:33:48;;;;;;;5.23;4.73;;;18.80;43.60;;;;;;4951423;28;20647;-68
2023/12/14 06:36:15;;;;;;;3.90;3.63;;;18.80;43.60;;;;;;4956634;28;20555;-71
2023/12/14 06:38:42;;;;;;;4.10;3.83;;;18.90;43.70;;;;;;4954069;28;20484;-70
2023/12/14 06:41:08;;;;;;;4.17;3.77;;;18.90;43.70;;;;;;4960556;28;20829;-67
2023/12/14 06:43:34;;;;;;;3.80;3.60;;;18.90;43.70;;;;;;4958859;28;20228;-68
2023/12/14 06:45:59;;;;;;;4.40;4.10;;;18.80;43.60;;;;;;4956671;28;20477;-68
2023/12/14 06:48:25;;;;;;;4.53;4.30;;;18.80;43.60;;;;;;4957204;28;20290;-70
2023/12/14 06:50:51;;;;;;;4.70;4.40;;;18.80;43.60;;;;;;4958542;28;20229;-68
2023/12/14 06:53:16;;;;;;;5.40;3.87;;;18.90;43.70;;;;;;4957609;28;20244;-69
2023/12/14 06:55:42;;;;;;;3.70;3.50;;;18.90;43.70;;;;;;4957422;28;20694;-68
2023/12/14 06:58:11;;;;;;;4.63;4.37;;;18.90;43.70;;;;;;4957175;28;20673;-69
2023/12/14 07:00:39;;;;;;;4.77;4.47;;;18.80;43.60;;;;;;4954644;28;20463;-68
2023/12/14 07:03:05;;;;;;;5.20;4.80;;;18.80;43.60;;;;;;4943908;28;20973;-68
2023/12/14 07:05:32;;;;;;;4.47;4.10;;;18.90;43.70;;;;;;4943789;28;20763;-67
2023/12/14 07:07:57;;;;;;;5.40;5.00;;;18.80;43.70;;;;;;4948711;28;20235;-68
2023/12/14 07:10:24;;;;;;;6.70;4.17;;;18.80;43.60;;;;;;4950812;28;20454;-71
2023/12/14 07:12:50;;;;;;;4.40;4.10;;;18.80;43.60;;;;;;4954236;28;20224;-70
2023/12/14 07:15:15;;;;;;;4.80;4.40;;;18.80;43.60;;;;;;4951561;28;20575;-69
2023/12/14 07:17:41;;;;;;;5.93;5.33;;;18.80;43.60;;;;;;4950361;28;20242;-70
2023/12/14 07:20:07;;;;;;;4.63;4.33;;;18.80;43.60;;;;;;4951434;28;20220;-68
2023/12/14 07:22:33;;;;;;;5.00;4.60;;;18.80;43.60;;;;;;4948549;28;20301;-68
2023/12/14 07:24:58;;;;;;;5.30;4.80;;;18.80;43.60;;;;;;4943776;28;20449;-68
2023/12/14 07:27:24;;;;;;;5.30;4.90;;;18.80;43.60;;;;;;4951200;28;20916;-67
2023/12/14 07:29:49;;;;;;;5.80;5.40;;;18.80;43.60;;;;;;4954018;28;20240;-69
2023/12/14 07:32:15;;;;;;;6.80;5.37;;;18.80;43.60;;;;;;4954157;28;20230;-68
2023/12/14 07:34:41;;;;;;;5.80;5.30;;;18.80;43.60;;;;;;4948914;28;20966;-68
2023/12/14 07:37:07;;;;;;;5.67;5.17;;;18.80;43.60;;;;;;4949945;28;20449;-70
2023/12/14 07:39:32;;;;;;;6.20;5.70;;;18.80;43.60;;;;;;4951543;28;20228;-68
2023/12/14 07:41:58;;;;;;;6.10;5.53;;;18.80;43.60;;;;;;4954687;28;20239;-67
2023/12/14 07:44:25;;;;;;;6.03;5.53;;;18.80;43.60;;;;;;4952037;28;20229;-69
2023/12/14 07:46:51;;;;;;;5.80;5.40;;;18.80;43.60;;;;;;4955763;28;20221;-69
2023/12/14 07:49:20;;;;;;;6.40;5.90;;;18.80;43.60;;;;;;4958129;28;20560;-68
2023/12/14 07:51:46;;;;;;;6.00;5.50;;;18.80;43.60;;;;;;4955529;28;20442;-70
2023/12/14 07:54:12;;;;;;;6.50;5.57;;;18.80;43.60;;;;;;4949394;28;20462;-69
2023/12/14 07:56:37;;;;;;;5.50;5.00;;;18.80;43.60;;;;;;4955845;28;20478;-68
2023/12/14 07:59:06;;;;;;;13.83;7.33;;;18.80;43.60;;;;;;4946115;28;20279;-68
2023/12/14 08:01:32;;;;;;;7.27;6.10;;;18.80;43.60;;;;;;4957025;28;20240;-67
2023/12/14 08:03:57;;;;;;;6.33;5.70;;;18.80;43.70;;;;;;4956257;28;20448;-68
2023/12/14 08:06:23;;;;;;;5.97;5.47;;;18.80;43.60;;;;;;4946140;28;20261;-68
2023/12/14 08:08:49;;;;;;;6.73;6.13;;;18.80;43.60;;;;;;4955625;28;20277;-67
2023/12/14 08:11:14;;;;;;;6.50;6.00;;;18.80;43.60;;;;;;4957250;28;20233;-68
2023/12/14 08:13:40;;;;;;;7.53;6.80;;;18.80;43.60;;;;;;4957120;28;20240;-69
2023/12/14 08:16:07;;;;;;;6.47;5.97;;;18.80;43.60;;;;;;4956674;28;21073;-67
2023/12/14 08:18:33;;;;;;;7.13;5.70;;;18.80;43.60;;;;;;4960099;28;20765;-70
2023/12/14 08:20:58;;;;;;;6.40;5.90;;;18.80;43.60;;;;;;4955677;28;20486;-70
2023/12/14 08:23:27;;;;;;;9.10;6.00;;;18.80;43.60;;;;;;4939076;28;20605;-68
2023/12/14 08:25:56;;;;;;;6.57;5.70;;;18.80;43.60;;;;;;4956628;28;20236;-68
2023/12/14 08:28:23;;;;;;;7.97;6.27;;;18.80;43.60;;;;;;4960376;28;20903;-67
2023/12/14 08:30:49;;;;;;;6.13;5.63;;;18.80;43.60;;;;;;4958164;28;20474;-69
2023/12/14 08:33:15;;;;;;;6.87;6.23;;;18.80;43.60;;;;;;4957100;28;20947;-67
2023/12/14 08:35:40;;;;;;;7.30;6.70;;;18.80;43.60;;;;;;4958058;28;20227;-70
2023/12/14 08:38:06;;;;;;;8.67;5.60;;;18.80;43.60;;;;;;4949831;28;21002;-69
2023/12/14 08:40:32;;;;;;;6.77;6.27;;;18.80;43.60;;;;;;4941188;28;20284;-68
2023/12/14 08:42:57;;;;;;;5.90;5.37;;;18.80;43.60;;;;;;4946389;28;20233;-67
2023/12/14 08:45:23;;;;;;;7.10;6.40;;;18.80;43.60;;;;;;4957048;28;20240;-67
2023/12/14 08:47:48;;;;;;;6.10;5.60;;;18.80;43.60;;;;;;4955923;28;20279;-69
2023/12/14 08:50:14;;;;;;;6.50;5.30;;;18.80;43.60;;;;;;4946333;28;20350;-68
2023/12/14 08:52:39;;;;;;;6.87;5.37;;;18.80;43.60;;;;;;4947643;28;20701;-68
2023/12/14 08:55:06;;;;;;;6.30;5.80;;;18.80;43.60;;;;;;4944936;28;20410;-69
2023/12/14 08:57:31;;;;;;;7.10;6.50;;;18.80;43.60;;;;;;4956937;28;20236;-68
2023/12/14 08:59:58;;;;;;;6.00;5.60;;;18.80;43.60;;;;;;4948452;28;20459;-68
2023/12/14 09:02:23;;;;;;;6.13;5.63;;;18.80;43.60;;;;;;4949276;28;20235;-68
2023/12/14 09:04:49;;;;;;;6.50;5.93;;;18.80;43.60;;;;;;4949343;28;21202;-68
2023/12/14 09:07:14;;;;;;;7.10;6.40;;;18.80;43.60;;;;;;4958116;28;20639;-68
2023/12/14 09:09:40;;;;;;;6.57;6.07;;;18.80;43.60;;;;;;4957495;28;20669;-68
2023/12/14 09:12:05;;;;;;;6.57;5.50;;;18.80;43.60;;;;;;4959555;28;20802;-69
2023/12/14 09:14:31;;;;;;;6.63;6.03;;;18.80;43.60;;;;;;4955262;28;20224;-68
2023/12/14 09:16:57;;;;;;;7.40;6.80;;;18.80;43.60;;;;;;4958464;28;20267;-68
2023/12/14 09:19:22;;;;;;;6.50;5.83;;;18.80;43.60;;;;;;4957612;28;20573;-66
2023/12/14 09:21:48;;;;;;;6.17;5.63;;;18.80;43.60;;;;;;4959014;28;20216;-68
2023/12/14 09:24:14;;;;;;;7.93;6.30;;;18.80;43.60;;;;;;4955222;28;20225;-68
2023/12/14 09:26:39;;;;;;;6.43;5.77;;;18.80;43.60;;;;;;4955154;28;20233;-68
2023/12/14 09:29:05;;;;;;;7.33;6.00;;;18.80;43.60;;;;;;4954613;28;20225;-67
2023/12/14 09:31:30;;;;;;;7.80;5.90;;;18.80;43.60;;;;;;4957198;28;20690;-68
2023/12/14 09:33:56;;;;;;;6.43;5.90;;;18.80;43.60;;;;;;4956303;28;20225;-68
2023/12/14 09:36:21;;;;;;;6.83;6.13;;;18.80;43.60;;;;;;4940533;28;20268;-70
2023/12/14 09:38:47;;;;;;;7.47;6.07;;;18.80;43.60;;;;;;4946011;28;20228;-68
2023/12/14 09:41:13;;;;;;;7.17;5.70;;;18.80;43.60;;;;;;4954695;28;20680;-68
2023/12/14 09:43:38;;;;;;;5.90;5.40;;;18.80;43.60;;;;;;4944598;28;20231;-68
2023/12/14 09:46:04;;;;;;;6.43;5.93;;;18.80;43.60;;;;;;4955900;28;20240;-68
2023/12/14 09:48:31;;;;;;;6.20;5.80;;;18.80;43.60;;;;;;4958228;28;20776;-68
2023/12/14 09:50:57;;;;;;;6.53;5.53;;;18.80;43.60;;;;;;4955466;28;20263;-67
2023/12/14 09:53:22;;;;;;;6.40;5.80;;;18.80;43.60;;;;;;4955954;28;20938;-68
2023/12/14 09:55:48;;;;;;;6.47;5.87;;;18.80;43.70;;;;;;4956268;28;20256;-67
2023/12/14 09:58:14;;;;;;;6.40;5.80;;;18.80;43.60;;;;;;4954522;28;20697;-68
2023/12/14 10:00:40;;;;;;;6.27;5.80;;;18.80;43.70;;;;;;4958461;28;20251;-68
2023/12/14 10:03:21;;;;;;;5.77;5.37;;;18.80;43.60;;;;;;4947356;28;21198;-69
2023/12/14 10:05:48;;;;;;;6.10;5.60;;;18.80;43.70;;;;;;4933084;28;20509;-68
2023/12/14 10:08:15;;;;;;;5.80;5.40;;;18.80;43.70;;;;;;4938778;28;20442;-68
2023/12/14 10:10:40;;;;;;;6.10;5.60;;;18.80;43.70;;;;;;4943707;28;20442;-67
2023/12/14 10:13:06;;;;;;;5.63;5.17;;;18.80;43.70;;;;;;4941335;28;20461;-71
2023/12/14 10:15:47;;;;;;;5.80;5.40;;;18.80;43.70;;;;;;4943173;28;20351;-68
2023/12/14 10:18:25;;;;;;;6.87;6.27;;;18.80;43.60;;;;;;4940100;28;20928;-68
2023/12/14 10:20:51;;;;;;;5.10;4.70;;;18.80;43.60;;;;;;4937617;28;20469;-69
2023/12/14 10:23:17;;;;;;;5.43;5.00;;;18.80;43.70;;;;;;4937297;28;20521;-70
2023/12/14 10:25:43;;;;;;;5.67;5.27;;;18.80;43.60;;;;;;4940135;28;20459;-67
2023/12/14 10:28:14;;;;;;;4.50;4.20;;;18.80;43.60;;;;;;4943791;28;20474;-69
2023/12/14 10:30:43;;;;;;;6.40;5.37;;;18.80;43.60;;;;;;4924215;28;20228;-69
2023/12/14 10:33:09;;;;;;;5.60;5.20;;;18.80;43.60;;;;;;4938715;28;20455;-71
2023/12/14 10:35:35;;;;;;;4.97;4.67;;;18.80;43.60;;;;;;4942359;28;20442;-70
2023/12/14 10:38:04;;;;;;;5.73;5.23;;;18.80;43.60;;;;;;4944154;28;20505;-71
2023/12/14 10:40:30;;;;;;;5.03;4.70;;;18.80;43.60;;;;;;4936197;28;20240;-70
2023/12/14 10:42:59;;;;;;;5.23;4.83;;;18.80;43.60;;;;;;4939066;28;20451;-68
2023/12/14 10:45:32;;;;;;;6.00;5.60;;;18.80;43.60;;;;;;4943284;28;21005;-68
2023/12/14 10:48:00;;;;;;;6.00;5.50;;;18.80;43.60;;;;;;4950420;28;20458;-68
2023/12/14 10:50:28;;;;;;;5.10;4.70;;;18.80;43.60;;;;;;4948298;28;20466;-67
2023/12/14 10:52:54;;;;;;;5.73;5.33;;;18.80;43.60;;;;;;4942247;28;20535;-68
2023/12/14 10:55:40;;;;;;;5.20;4.80;;;18.80;43.60;;;;;;4938206;28;20467;-69
2023/12/14 10:58:07;;;;;;;5.20;4.90;;;18.80;43.60;;;;;;4945161;28;20972;-69
2023/12/14 11:00:33;;;;;;;5.77;5.37;;;18.80;43.70;;;;;;4947437;28;20438;-70
2023/12/14 11:03:00;;;;;;;4.93;4.53;;;18.80;43.60;;;;;;4924400;28;20481;-67
2023/12/14 11:05:30;;;;;;;5.67;5.17;;;18.80;43.60;;;;;;4944835;28;20228;-68
2023/12/14 11:08:03;;;;;;;4.70;4.40;;;18.80;43.60;;;;;;4935584;28;20536;-69
2023/12/14 11:10:39;;;;;;;4.97;4.57;;;18.80;43.60;;;;;;4947906;28;20437;-66
2023/12/14 11:13:11;;;;;;;5.30;4.80;;;18.80;43.60;;;;;;4943595;28;20490;-67
2023/12/14 11:15:37;;;;;;;4.83;4.53;;;18.80;43.60;;;;;;4943745;28;20455;-71
2023/12/14 11:18:12;;;;;;;4.90;4.60;;;18.80;43.60;;;;;;4949547;28;20481;-66
2023/12/14 11:20:52;;;;;;;5.40;5.10;;;18.80;43.60;;;;;;4948563;28;20232;-70
2023/12/14 11:23:30;;;;;;;5.07;4.57;;;18.80;43.60;;;;;;4945522;28;20445;-67
2023/12/14 11:26:02;;;;;;;4.60;4.40;;;18.80;43.60;;;;;;4947691;28;21330;-71
2023/12/14 11:28:28;;;;;;;4.40;4.10;;;18.80;43.60;;;;;;4946380;28;20482;-68
2023/12/14 11:30:55;;;;;;;5.40;4.90;;;18.80;43.60;;;;;;4943849;28;21129;-70
2023/12/14 11:33:21;;;;;;;4.90;4.60;;;18.80;44.10;;;;;;4937871;28;20720;-68
2023/12/14 11:35:46;;;;;;;5.13;4.73;;;18.80;43.60;;;;;;4945218;28;20502;-69
2023/12/14 11:38:15;;;;;;;4.97;4.67;;;18.80;43.60;;;;;;4944144;28;20248;-68
2023/12/14 11:40:41;;;;;;;4.67;4.37;;;18.80;43.60;;;;;;4939061;28;20248;-71
2023/12/14 11:43:09;;;;;;;5.27;4.87;;;18.80;43.60;;;;;;4943774;28;20509;-70
2023/12/14 11:45:35;;;;;;;4.67;4.37;;;18.80;43.60;;;;;;4947042;28;20540;-72
2023/12/14 11:48:04;;;;;;;4.40;4.10;;;18.80;43.60;;;;;;4948747;28;20458;-68
2023/12/14 11:50:30;;;;;;;4.83;4.53;;;18.80;43.60;;;;;;4942588;28;20425;-70
2023/12/14 11:52:56;;;;;;;4.00;3.80;;;18.80;43.60;;;;;;4943402;28;20455;-70
2023/12/14 11:55:21;;;;;;;3.97;3.77;;;18.80;43.70;;;;;;4944238;28;20226;-69
2023/12/14 11:57:48;;;;;;;5.20;4.80;;;18.80;43.60;;;;;;4943609;28;20243;-71
2023/12/14 12:00:14;;;;;;;4.40;4.10;;;18.80;43.60;;;;;;4933322;28;20278;-71
2023/12/14 12:02:40;;;;;;;4.00;3.80;;;18.80;43.60;;;;;;4941584;28;20473;-71
2023/12/14 12:05:06;;;;;;;4.80;4.50;;;18.80;43.60;;;;;;4943568;28;21257;-69
2023/12/14 12:07:32;;;;;;;4.13;3.93;;;18.80;43.60;;;;;;4944761;28;20235;-69
2023/12/14 12:09:59;;;;;;;4.63;4.40;;;18.80;43.60;;;;;;4945048;28;20452;-72
2023/12/14 12:12:25;;;;;;;5.03;4.67;;;18.80;43.60;;;;;;4946947;28;20231;-68
2023/12/14 12:14:52;;;;;;;4.90;4.50;;;18.80;43.60;;;;;;4943327;28;20998;-68
2023/12/14 12:17:21;;;;;;;3.80;3.60;;;18.80;43.60;;;;;;4941030;28;20241;-68
2023/12/14 12:19:47;;;;;;;4.10;3.90;;;18.80;43.60;;;;;;4941480;28;20463;-68
2023/12/14 12:22:12;;;;;;;4.10;3.80;;;18.80;43.60;;;;;;4933489;28;20502;-68
2023/12/14 12:24:38;;;;;;;4.33;4.13;;;18.80;43.60;;;;;;4946029;28;20221;-68
2023/12/14 12:27:04;;;;;;;4.40;4.10;;;18.80;43.60;;;;;;4941570;28;20240;-70
2023/12/14 12:29:30;;;;;;;3.73;3.53;;;18.80;43.60;;;;;;4943825;28;20316;-69
2023/12/14 12:31:56;;;;;;;3.90;3.60;;;18.80;43.60;;;;;;4941650;28;21489;-67
2023/12/14 12:34:21;;;;;;;3.90;3.60;;;18.80;43.60;;;;;;4939258;28;21777;-68
2023/12/14 12:36:47;;;;;;;4.33;4.03;;;18.80;43.60;;;;;;4936884;28;20517;-68
2023/12/14 12:39:13;;;;;;;3.87;3.57;;;18.80;43.60;;;;;;4941421;28;21392;-68
2023/12/14 12:41:38;;;;;;;4.07;3.87;;;18.80;43.60;;;;;;4944741;28;20232;-67
2023/12/14 12:44:08;;;;;;;3.73;3.53;;;18.80;43.60;;;;;;4940617;28;20240;-67